Meteo Giornale » Osservazioni meteo Italia » S Maria Di Leuca

ore: 07:55 - Osservazioni Meteo S Maria Di Leuca
Lat. 39° 49' N Lon. 18° 21' E Alt. 104 metri s.l.m.

sereno Europe/Rome

22 °C

Sereno

Temp. 24 Ore

22 °C

25 °C

Nord

5.5 Km/h

Dew point 19 °C

Umidità 83 %

Visibilità  10 Km

Il sole sorge alle ore 05:17

Il sole tramonta alle ore 20:20

Data e Ora Cielo e Fenomeni T °C DP °C Um. % Pres. hPa Vis. km Vento km/h
Oggi h: 07:55 sereno Sereno 22 19 83 1012 10 N 5.5
Oggi h: 06:55 sereno Sereno 22 19 83 1012 10 N 3.7
Oggi h: 05:55 sereno Sereno 22 19 83 1012 10 N 3.7
Oggi h: 04:55 sereno Sereno 22 18 78 1013 10 O 7.4
Oggi h: 03:55 sereno Sereno 22 19 83 1013 10 O 7.4
Oggi h: 02:55 sereno Sereno 22 19 83 1013 10 O/SO 9.3
Oggi h: 01:55 sereno Sereno 22 20 88 1014 10 O/SO 7.4
Oggi h: 00:55 sereno Sereno 22 20 88 1014 10 O/SO 7.4
Ieri h: 23:55 sereno Sereno 22 20 88 1014 10 O/SO 7.4
Ieri h: 22:55 sereno Sereno 22 20 88 1014 10 N 3.7
Ieri h: 21:55 sereno Sereno 22 20 88 1014 10 O/SO 7.4
Ieri h: 20:55 sereno Sereno 23 21 88 1014 10 O/SO 7.4
Ieri h: 19:55 sereno Sereno 23 21 88 1014 10 O/SO 7.4
Ieri h: 18:55 poco_nuvoloso Poco Nuvoloso 23 21 88 1014 10 SO 11.1
Ieri h: 16:55 coperto_temporali Temporale 25 19 69 1014 10 O 11.1
Ieri h: 15:55 sereno Sereno 25 21 78 1015 10 O 7.4
Ieri h: 12:55 sereno Sereno 25 14 50 1016 10 N 11.1
Ieri h: 11:55 sereno Sereno 25 17 61 1016 10 N/NE 14.8
Ieri h: 10:55 sereno Sereno 24 18 69 1016 10 N 14.8
Ieri h: 09:55 sereno Sereno 23 19 78 1016 10 N 16.7